Latest Weather Observations for Norseman Airport

IDW60801

Issued at 8:02 am WST Friday 27 May 2016 (issued every 30 minutes, with the page automatically refreshed every 10 minutes)

About weather observations | Map of weather stations | Latest weather observations for WA | Other Formats
Station Details ID: 012009 Name: NORSEMAN AERO Lat: -32.21 Lon: 121.75 Height: 262.5 m
Data from the previous 72 hours. | See also: Recent months at Norseman Airport
Date/Time
WST
Temp
°C
App
Temp
°C
Dew
Point
Rel
Hum
%
Delta-T
°C
Wind Press
QNH
hPa
Press
MSL
hPa
Rain
since 9 am
mm
Dir
 
Spd
km/h
Gust
km/h
Spd
kts
Gust
kts
27/08:00am 5.2 4.1 5.1 99 0.0 CALM 0 0 0 0 1024.5 1024.3 0.0
27/07:30am 1.7 -1.2 1.6 99 0.0 NE 6 6 3 3 1024.1 1023.9 0.0
27/07:00am -0.2 -2.2 -0.3 99 0.0 CALM 0 6 0 3 1023.4 1023.2 0.0
27/06:30am -0.3 -2.3 -0.4 99 0.0 CALM 0 0 0 0 1023.0 1022.9 0.0
27/06:00am -0.2 -2.2 -0.3 99 0.0 CALM 0 6 0 3 1023.3 1023.1 0.0
27/05:30am 0.1 -3.2 0.0 99 0.0 ESE 7 9 4 5 1023.2 1023.0 0.0
27/05:00am 0.3 -1.7 0.2 99 0.0 CALM 0 0 0 0 1023.3 1023.1 0.0
27/04:30am 0.7 -1.2 0.6 99 0.0 CALM 0 0 0 0 1023.3 1023.1 0.0
27/04:00am 1.1 -0.7 1.0 99 0.0 CALM 0 0 0 0 1023.2 1023.0 0.0
27/03:30am 1.2 -0.6 1.1 99 0.0 CALM 0 0 0 0 1023.3 1023.1 0.0
27/03:00am 1.6 -0.9 1.3 98 0.1 SSW 4 6 2 3 1023.3 1023.1 0.0
27/02:30am 2.0 0.3 1.6 97 0.2 CALM 0 0 0 0 1023.5 1023.3 0.0
27/02:00am 2.0 0.3 1.6 97 0.2 CALM 0 0 0 0 1023.3 1023.1 0.0
27/01:30am 2.4 -0.4 1.8 96 0.2 SSE 6 7 3 4 1023.0 1022.9 0.0
27/01:00am 3.2 1.2 2.5 95 0.3 S 2 6 1 3 1023.0 1022.9 0.0
27/12:30am 3.6 1.3 2.7 94 0.4 SSW 4 6 2 3 1023.0 1022.9 0.0
27/12:00am 4.0 1.4 3.0 93 0.4 S 6 7 3 4 1022.8 1022.7 0.0
 
Date/Time
WST
Temp
°C
App
Temp
°C
Dew
Point
Rel
Hum
%
Delta-T
°C
Wind Press
QNH
hPa
Press
MSL
hPa
Rain
since 9 am
mm
Dir
 
Spd
km/h
Gust
km/h
Spd
kts
Gust
kts
26/11:30pm 4.3 2.4 3.0 91 0.5 SSW 2 6 1 3 1022.6 1022.4 0.0
26/11:00pm 4.9 3.4 3.2 89 0.7 CALM 0 0 0 0 1022.3 1022.1 0.0
26/10:30pm 5.6 4.2 3.6 87 0.9 CALM 0 6 0 3 1022.3 1022.1 0.0
26/10:00pm 6.3 3.3 4.1 86 1.0 SE 9 11 5 6 1022.0 1021.8 0.0
26/09:30pm 6.7 3.8 4.4 85 1.0 SSE 9 15 5 8 1022.0 1021.8 0.0
26/09:00pm 6.9 4.5 4.2 83 1.2 S 6 7 3 4 1021.9 1021.7 0.0
26/08:30pm 7.3 5.3 4.3 81 1.3 S 4 7 2 4 1021.3 1021.1 0.0
26/08:00pm 7.9 6.6 3.9 76 1.7 CALM 0 0 0 0 1021.2 1021.0 0.0
26/07:30pm 9.1 7.9 4.5 73 2.1 CALM 0 6 0 3 1020.6 1020.4 0.0
26/07:00pm 10.5 9.4 5.1 69 2.5 CALM 0 7 0 4 1020.3 1020.1 0.0
26/06:30pm 12.1 9.3 5.0 62 3.3 SSW 9 9 5 5 1019.9 1019.7 0.0
26/06:00pm 13.2 10.4 5.1 58 3.8 SSW 9 13 5 7 1019.5 1019.2 0.0
26/05:30pm 13.8 9.5 5.4 57 4.0 SW 17 20 9 11 1018.9 1018.7 0.0
26/05:00pm 15.0 10.8 5.5 53 4.6 SW 17 22 9 12 1018.5 1018.3 0.0
26/04:30pm 16.2 11.1 6.1 51 5.0 SW 22 30 12 16 1018.3 1018.1 0.0
26/04:00pm 16.7 11.3 6.2 50 5.2 SW 24 33 13 18 1017.7 1017.5 0.0
26/03:30pm 17.2 11.4 6.4 49 5.4 SW 26 33 14 18 1017.1 1016.9 0.0
26/03:00pm 17.9 10.9 6.1 46 5.9 WSW 32 41 17 22 1017.0 1016.8 0.0
26/02:30pm 17.1 10.8 7.2 52 5.0 WSW 30 41 16 22 1016.8 1016.6 0.0
26/02:00pm 17.9 12.4 7.6 51 5.3 WSW 26 33 14 18 1016.5 1016.3 0.0
26/01:37pm 18.5 12.8 8.5 52 5.2 WSW 28 54 15 29 1016.1 1015.8 0.0
26/01:30pm 18.3 13.2 7.7 50 5.5 SW 24 32 13 17 1016.0 1015.7 0.0
26/01:00pm 17.6 11.5 8.2 54 4.9 WSW 30 39 16 21 1016.2 1015.9 0.0
26/12:30pm 17.7 12.6 9.1 57 4.5 WSW 26 33 14 18 1015.9 1015.6 0.0
26/12:00pm 16.5 10.8 8.5 59 4.1 WSW 28 35 15 19 1015.9 1015.6 0.0
26/11:30am 16.3 10.1 9.3 63 3.7 WSW 32 43 17 23 1016.3 1016.0 0.0
26/11:00am 15.7 10.8 9.8 68 3.1 W 26 32 14 17 1016.6 1016.4 0.0
26/10:30am 15.3 10.8 9.9 70 2.9 W 24 30 13 16 1016.5 1016.3 0.0
26/10:00am 14.4 10.7 10.0 75 2.3 W 20 24 11 13 1016.4 1016.2 0.0
26/09:30am 13.7 9.5 9.6 76 2.1 W 22 32 12 17 1016.6 1016.4 0.0
26/09:00am 12.8 9.1 9.4 80 1.7 W 19 22 10 12 1016.4 1016.2 0.0
26/08:30am 11.9 8.4 8.9 82 1.5 W 17 24 9 13 1016.3 1016.0 0.0
26/08:00am 10.9 8.5 8.5 85 1.2 W 11 15 6 8 1015.4 1015.1 0.0
26/07:30am 10.1 8.3 7.9 86 1.1 WNW 7 13 4 7 1015.2 1014.9 0.0
26/07:00am 9.2 8.5 7.0 86 1.0 CALM 0 0 0 0 1014.4 1014.2 0.0
26/06:30am 9.4 7.6 7.0 85 1.1 W 6 9 3 5 1014.6 1014.4 0.0
26/06:00am 9.0 6.9 6.6 85 1.1 W 7 11 4 6 1014.0 1013.8 0.0
26/05:30am 8.9 8.1 6.3 84 1.2 CALM 0 0 0 0 1013.8 1013.6 0.0
26/05:00am 9.9 7.5 7.0 82 1.4 SW 9 13 5 7 1013.5 1013.3 0.0
26/04:30am 10.0 7.4 7.6 85 1.2 WNW 11 17 6 9 1013.1 1012.9 0.0
26/04:00am 8.0 6.6 5.5 84 1.1 NW 2 7 1 4 1012.9 1012.6 0.0
26/03:30am 9.5 7.4 6.8 83 1.3 N 7 9 4 5 1012.7 1012.4 0.0
26/03:00am 8.4 6.1 5.9 84 1.2 NE 7 9 4 5 1012.8 1012.5 0.0
26/02:30am 8.5 5.9 6.0 84 1.2 NE 9 11 5 6 1012.6 1012.3 0.0
26/02:00am 8.3 6.2 5.8 84 1.2 NE 6 7 3 4 1012.7 1012.4 0.0
26/01:30am 7.7 4.9 5.3 85 1.1 NE 9 9 5 5 1012.4 1012.1 0.0
26/01:00am 7.6 4.4 5.2 85 1.1 NE 11 13 6 7 1012.6 1012.3 0.0
26/12:30am 7.1 4.6 4.8 85 1.0 NNE 7 9 4 5 1012.8 1012.5 0.0
26/12:00am 7.6 4.1 5.4 86 1.0 NNE 13 13 7 7 1012.5 1012.2 0.0
 
Date/Time
WST
Temp
°C
App
Temp
°C
Dew
Point
Rel
Hum
%
Delta-T
°C
Wind Press
QNH
hPa
Press
MSL
hPa
Rain
since 9 am
mm
Dir
 
Spd
km/h
Gust
km/h
Spd
kts
Gust
kts
25/11:30pm 6.6 3.7 4.6 87 0.9 NE 9 9 5 5 1013.0 1012.7 0.0
25/11:00pm 6.7 4.2 4.7 87 0.9 NNE 7 9 4 5 1013.2 1013.0 0.0
25/10:30pm 7.0 4.4 4.3 83 1.2 NE 7 9 4 5 1013.2 1013.0 0.0
25/10:00pm 8.0 5.1 4.9 81 1.4 NNE 9 11 5 6 1013.5 1013.3 0.0
25/09:30pm 8.8 6.0 5.0 77 1.7 NE 9 11 5 6 1013.4 1013.2 0.0
25/09:00pm 8.8 5.2 4.8 76 1.8 NNE 13 13 7 7 1013.2 1013.0 0.0
25/08:30pm 8.8 5.9 4.6 75 1.9 NNE 9 11 5 6 1013.3 1013.1 0.0
25/08:00pm 10.1 7.6 4.9 70 2.4 NE 7 9 4 5 1013.3 1013.1 0.0
25/07:30pm 12.2 10.0 5.4 63 3.2 N 6 7 3 4 1013.4 1013.2 0.0
25/07:00pm 12.3 10.2 6.6 68 2.8 NNW 7 7 4 4 1013.4 1013.2 0.0
25/06:30pm 12.8 10.2 5.9 63 3.3 NW 9 13 5 7 1013.3 1013.1 0.0
25/06:00pm 13.9 9.5 5.0 55 4.2 WNW 17 24 9 13 1013.1 1012.9 0.0
25/05:30pm 13.9 9.7 5.5 57 4.0 WNW 17 22 9 12 1012.6 1012.3 0.0
25/05:00pm 14.4 9.8 5.7 56 4.2 WNW 19 24 10 13 1012.2 1011.9 0.0
25/04:30pm 14.7 10.4 5.2 53 4.5 WNW 17 20 9 11 1011.9 1011.6 0.0
25/04:00pm 15.0 10.8 5.5 53 4.6 W 17 22 9 12 1011.7 1011.4 0.0
25/03:30pm 15.2 10.5 6.0 54 4.5 W 20 26 11 14 1011.5 1011.2 0.0
25/03:00pm 15.4 11.3 6.2 54 4.5 W 17 22 9 12 1011.0 1010.8 0.0
25/02:30pm 15.6 11.7 5.5 51 4.9 W 15 19 8 10 1010.8 1010.6 0.0
25/02:00pm 15.6 10.9 6.1 53 4.7 WNW 20 28 11 15 1010.6 1010.4 0.0
25/01:30pm 15.6 10.8 5.5 51 4.9 W 20 26 11 14 1010.3 1010.1 0.0
25/01:00pm 15.6 11.1 4.3 47 5.3 W 17 20 9 11 1010.5 1010.3 0.0
25/12:30pm 15.3 11.4 5.5 52 4.7 WNW 15 20 8 11 1010.8 1010.6 0.0
25/12:00pm 15.1 9.8 5.0 51 4.8 WSW 22 28 12 15 1011.0 1010.8 0.0
25/11:30am 14.7 9.3 6.3 57 4.1 WSW 24 30 13 16 1011.4 1011.1 0.0
25/11:00am 14.7 9.6 5.8 55 4.3 WSW 22 28 12 15 1011.6 1011.3 0.0
25/10:30am 14.9 9.8 6.2 56 4.2 WSW 22 30 12 16 1011.8 1011.5 0.0
25/10:00am 15.6 11.9 7.9 60 3.9 WSW 17 24 9 13 1011.7 1011.4 0.0
25/09:30am 13.8 11.6 9.3 74 2.3 W 11 13 6 7 1011.7 1011.4 0.0
25/09:00am 12.2 11.3 11.3 94 0.5 WSW 7 11 4 6 1011.7 1011.4 4.6
25/08:30am 10.8 10.6 10.6 99 0.1 SSW 2 7 1 4 1011.5 1011.2 4.6
25/08:00am 10.4 9.2 10.4 100 0.0 SSW 7 9 4 5 1011.2 1010.9 4.6
25/07:30am 9.7 8.0 9.7 100 0.0 S 9 9 5 5 1010.8 1010.6 4.6
25/07:00am 8.9 7.3 8.9 100 0.0 S 7 9 4 5 1010.7 1010.5 4.6
25/06:30am 8.6 7.0 8.6 100 0.0 S 7 7 4 4 1010.4 1010.2 4.6
25/06:00am 8.3 6.6 8.3 100 0.0 SSW 7 7 4 4 1010.0 1009.8 4.6
25/05:30am 8.2 6.6 8.2 100 0.0 SSW 6 9 3 5 1009.6 1009.3 4.6
25/05:00am 8.5 6.8 8.5 100 0.0 SSE 7 7 4 4 1009.6 1009.3 4.6
25/04:30am 8.7 7.3 8.7 100 0.0 S 6 7 3 4 1009.5 1009.2 4.6
25/04:00am 8.6 7.1 8.6 100 0.0 SE 6 7 3 4 1009.3 1009.0 4.6
25/03:30am 8.8 8.5 8.8 100 0.0 CALM 0 7 0 4 1009.3 1009.0 4.6
25/03:00am 8.2 6.6 8.2 100 0.0 SSE 6 7 3 4 1009.0 1008.7 4.6
25/02:30am 8.7 7.1 8.7 100 0.0 E 7 9 4 5 1009.0 1008.7 4.6
25/02:00am 9.2 8.3 9.2 100 0.0 ESE 4 7 2 4 1009.1 1008.8 4.6
25/01:30am 9.9 8.8 9.9 100 0.0 NE 6 7 3 4 1009.1 1008.8 4.6
25/01:00am 10.8 9.9 10.8 100 0.0 SE 6 6 3 3 1009.4 1009.1 4.6
25/12:30am 11.2 10.3 11.2 100 0.0 NNE 7 9 4 5 1009.3 1009.0 4.6
25/12:00am 10.8 9.7 10.8 100 0.0 SE 7 9 4 5 1009.4 1009.1 4.6
 
Date/Time
WST
Temp
°C
App
Temp
°C
Dew
Point
Rel
Hum
%
Delta-T
°C
Wind Press
QNH
hPa
Press
MSL
hPa
Rain
since 9 am
mm
Dir
 
Spd
km/h
Gust
km/h
Spd
kts
Gust
kts
24/11:30pm 10.9 11.2 10.9 100 0.0 CALM 0 0 0 0 1009.5 1009.2 4.6
24/11:00pm 11.1 10.3 11.1 100 0.0 NE 6 7 3 4 1009.6 1009.3 4.6
24/10:30pm 10.8 9.9 10.8 100 0.0 SSE 6 6 3 3 1009.6 1009.3 4.6
24/10:00pm 10.6 10.4 10.6 100 0.0 SSE 2 6 1 3 1009.8 1009.6 4.6
24/09:30pm 10.4 10.5 10.2 99 0.1 CALM 0 0 0 0 1010.0 1009.8 4.6
24/09:00pm 10.2 10.3 10.1 99 0.1 CALM 0 0 0 0 1010.1 1009.9 4.6
24/08:30pm 11.1 10.1 10.9 99 0.1 NNE 7 7 4 4 1010.1 1009.9 4.6
24/08:00pm 11.8 12.3 11.6 99 0.1 CALM 0 0 0 0 1009.8 1009.6 4.6
24/07:30pm 12.3 13.0 12.1 99 0.1 CALM 0 0 0 0 1009.7 1009.4 4.6
24/07:00pm 12.6 13.2 12.0 96 0.3 CALM 0 0 0 0 1009.3 1009.0 4.6
24/06:30pm 13.5 14.3 12.4 93 0.6 CALM 0 0 0 0 1009.1 1008.8 4.6
24/06:00pm 14.2 13.8 12.9 92 0.7 S 7 11 4 6 1008.6 1008.3 4.6
24/05:30pm 14.4 14.1 13.4 94 0.6 SW 7 9 4 5 1008.3 1008.0 4.6
24/05:00pm 14.9 13.6 13.6 92 0.7 WSW 13 15 7 8 1007.9 1007.6 4.6
24/04:30pm 15.8 15.3 14.8 94 0.6 SW 11 15 6 8 1007.0 1006.8 4.6
24/04:00pm 16.0 14.5 15.2 95 0.5 WSW 17 22 9 12 1006.8 1006.6 4.6
24/03:30pm 16.6 14.9 14.8 89 1.0 WNW 17 24 9 13 1006.5 1006.2 3.6
24/03:00pm 17.2 15.0 14.5 84 1.6 NW 19 22 10 12 1005.9 1005.6 3.6
24/02:30pm 17.1 14.7 14.4 84 1.6 NW 20 28 11 15 1005.3 1005.0 3.6
24/02:00pm 16.6 13.7 13.9 84 1.6 WNW 22 30 12 16 1005.6 1005.3 3.6
24/01:30pm 16.0 13.4 13.7 86 1.3 NW 20 30 11 16 1005.2 1004.9 3.6
24/01:00pm 15.1 11.5 13.1 88 1.1 NNW 24 32 13 17 1005.4 1005.1 3.6
24/12:30pm 14.4 9.9 12.6 89 1.0 NNW 28 39 15 21 1005.6 1005.3 3.6
24/12:00pm 13.4 9.2 12.3 93 0.6 NNW 26 35 14 19 1005.8 1005.5 3.6
24/11:30am 12.2 8.2 11.9 98 0.2 N 24 30 13 16 1006.3 1006.0 3.6
24/11:00am 11.9 6.9 11.0 94 0.5 NNW 28 37 15 20 1006.7 1006.5 3.4
24/10:30am 11.6 8.2 9.3 86 1.2 N 17 22 9 12 1006.3 1006.0 2.4
24/10:00am 11.5 8.0 8.7 83 1.4 N 17 22 9 12 1006.5 1006.2 1.4
24/09:30am 12.0 8.0 8.1 77 1.9 N 19 24 10 13 1007.0 1006.8 1.0
24/09:00am 13.1 7.7 6.5 64 3.2 N 24 30 13 16 1006.9 1006.7 0.2
24/08:30am 13.1 8.3 4.5 56 4.0 N 19 22 10 12 1006.5 1006.2 0.0

Other Formats:

Comma delimited format used in spreadsheet applications
http://www.bom.gov.au/fwo/IDW60801/IDW60801.95642.axf

JavaScript Object Notation format (JSON) in row-major order
http://www.bom.gov.au/fwo/IDW60801/IDW60801.95642.json